Monday, June 24, 2019, 6:42 PM CDT
Back to Local

KMEM, Memphis International Airport

Location: Memphis, TN, United States Lat: 35.033
Local Time: 6:42 PM CDT (23:42 GMT) Lon: -89.983
Time Zone: US/Central Elev: 334 ft

Show me the last for .
Show Decoded

2019-06-24 17:54 METAR KMEM 242254Z 24008KT 10SM SCT036 BKN250 28/21 A2990 RMK AO2 SLP120
                 T02780211 =
2019-06-24 16:54 METAR KMEM 242154Z 24010KT 10SM SCT037 BKN250 28/21 A2990 RMK AO2 SLP119
                 T02780206 =
2019-06-24 15:54 METAR KMEM 242054Z 22011KT 10SM SCT041 BKN250 27/19 A2990 RMK AO2 SLP120
                 T02720194 53002 =
2019-06-24 14:54 METAR KMEM 241954Z 22013KT 10SM SCT038 BKN250 28/20 A2989 RMK AO2 SLP118
                 T02780200 =
2019-06-24 13:54 METAR KMEM 241854Z 25011KT 10SM SCT035 BKN250 28/21 A2989 RMK AO2 SLP117
                 T02780206 =
2019-06-24 12:54 METAR KMEM 241754Z 24010G15KT 10SM SCT030 BKN250 27/21 A2989 RMK AO2 SLP118
                 T02720206 10272 20206 51007 =
2019-06-24 11:54 METAR KMEM 241654Z 27009KT 10SM SCT022 BKN250 26/21 A2989 RMK AO2 SLP117
                 T02610206 =
2019-06-24 10:54 METAR KMEM 241554Z VRB06G14KT 10SM SCT016 BKN120 BKN250 25/21 A2988 RMK AO2
                 SLP116 T02500206 =
2019-06-24 10:47 METAR KMEM 241547Z 26009KT 10SM SCT016 BKN120 BKN250 25/21 A2989 RMK AO2
                 T02500211 =
2019-06-24 09:54 METAR KMEM 241454Z 25007KT 10SM OVC015 23/21 A2987 RMK AO2 SLP112 T02280206
                 51007 =
2019-06-24 09:52 METAR KMEM 241452Z 25007KT 10SM OVC015 23/21 A2987 RMK AO2 =
2019-06-24 09:18 METAR KMEM 241418Z 27008KT 10SM SCT009 OVC014 22/21 A2986 RMK AO2 T02220206 =
2019-06-24 08:54 METAR KMEM 241354Z 28008KT 10SM BKN009 OVC015 22/21 A2987 RMK AO2 SLP111
                 T02170206 =
2019-06-24 08:23 METAR KMEM 241323Z VRB06KT 10SM BKN009 OVC015 22/21 A2985 RMK AO2 T02170211 =
2019-06-24 07:54 METAR KMEM 241254Z 28008KT 10SM OVC005 21/21 A2985 RMK AO2 SLP104 T02110211 =
2019-06-24 07:28 METAR KMEM 241228Z 19005KT 10SM BKN005 BKN180 OVC250 21/21 A2979 RMK AO2 PRESRR
                 T02110206 $ =
2019-06-24 06:54 METAR KMEM 241154Z 12006KT 10SM FEW005 SCT080 BKN190 OVC250 21/21 A2974 RMK AO2
                 RAE19 SLP067 P0000 60067 70134 T02060206 10211 20194 58028 $ =
2019-06-24 05:54 METAR KMEM 241054Z 10004KT 10SM -RA FEW005 BKN080 BKN095 OVC130 21/21 A2979 RMK
                 AO2 SLP085 P0002 T02060206 $ =
2019-06-24 04:54 METAR KMEM 240954Z 30003KT 5SM -RA BR SCT005 BKN049 OVC060 21/21 A2982 RMK AO2
                 SLP095 P0027 T02060206 $ =
2019-06-24 04:44 METAR KMEM 240944Z 30003KT 3SM RA BR SCT005 BKN038 OVC055 20/20 A2983 RMK AO2
                 P0025 T02000200 $ =
2019-06-24 04:36 METAR KMEM 240936Z 30004KT 3SM +RA BR SCT005 BKN016 OVC046 21/20 A2982 RMK AO2
                 LTG DSNT SE P0022 T02060200 $ =
2019-06-24 03:54 METAR KMEM 240854Z 31006KT 4SM RA BR OVC007 21/21 A2982 RMK AO2 CIG 004V011
                 SLP094 P0018 60038 T02060206 58016 $ =
2019-06-24 03:33 METAR KMEM 240833Z 01003KT 6SM RA BR BKN007 BKN090 OVC110 21/21 A2982 RMK AO2
                 CIG 005V012 P0009 T02060206 $ =
2019-06-24 02:54 METAR KMEM 240754Z 00000KT 4SM RA BR FEW007 BKN100 BKN110 OVC150 21/20 A2985 RMK
                 AO2 SLP103 P0016 T02060200 $ =
2019-06-24 01:54 METAR KMEM 240654Z 25003KT 10SM -RA SCT007 BKN075 BKN110 OVC150 21/21 A2986 RMK
                 AO2 SLP108 P0004 T02060206 $ =
2019-06-24 01:40 METAR KMEM 240640Z 00000KT 10SM -RA FEW007 FEW070 BKN110 21/21 A2986 RMK AO2
                 P0004 T02060206 $ =
2019-06-24 00:54 METAR KMEM 240554Z 24004KT 10SM -RA FEW055 SCT090 BKN110 OVC150 21/21 A2987 RMK
                 AO2 SLP110 P0006 60006 T02110206 10222 20211 403280200 58012 $ =
2019-06-23 23:54 METAR KMEM 240454Z 27006KT 7SM -RA FEW055 BKN090 OVC250 22/21 A2989 RMK AO2
                 RAB39 SLP117 P0000 T02170206 $ =
2019-06-23 22:54 METAR KMEM 240354Z 00000KT 10SM FEW060 BKN130 OVC250 22/19 A2989 RMK AO2
                 RAB20E40 SLP117 P0000 T02170194 $ =
2019-06-23 21:54 METAR KMEM 240254Z 20005KT 10SM FEW075 BKN100 OVC250 21/20 A2991 RMK AO2
                 RAB08E31 SLP123 P0000 60000 T02110200 53003 $ =
2019-06-23 20:54 METAR KMEM 240154Z 18005KT 10SM FEW110 BKN160 OVC250 22/20 A2988 RMK AO2 SLP113
                 T02170200 $ =
2019-06-23 19:54 METAR KMEM 240054Z 14008KT 8SM FEW080 BKN160 OVC250 22/21 A2987 RMK AO2 SLP112
                 T02220206 $ =
2019-06-23 18:54 METAR KMEM 232354Z 19004KT 10SM FEW045 BKN090 OVC250 22/21 A2990 RMK AO2 RAE35
                 SLP120 P0000 60061 T02220206 10328 20200 50007 $ =
2019-06-23 17:54 METAR KMEM 232254Z 33005KT 7SM -RA SCT045 BKN090 OVC250 21/19 A2992 RMK AO2 PK
                 WND 33032/2202 WSHFT 2141 LTG DSNT E TSB07E41 SLP127 P0061 T02110194 $ =
2019-06-23 17:42 METAR KMEM 232242Z 31011G19KT 7SM -RA FEW026 BKN044 OVC250 21/19 A2992 RMK AO2
                 PK WND 33032/2202 WSHFT 2141 LTG DSNT E AND SW TSB07E41 OCNL LTGICCC DSNT E
                 P0061 T02060194 $ =
2019-06-23 17:28 METAR KMEM 232228Z 30011G24KT 4SM -TSRA BR FEW009 SCT028CB OVC040 20/19 A2993
                 RMK AO2 PK WND 33032/2202 WSHFT 2141 LTG DSNT SW TSB07 OCNL LTGICCC NE-S TS NE-S
                 MOV E P0060 T02000194 $ =
2019-06-23 17:14 METAR KMEM 232214Z 32024G33KT 2SM R36L/2000V4000FT TSRA BR SCT020 OVC034CB 20/19
                 A2991 RMK AO2 PK WND 33032/2202 WSHFT 2141 LTG DSNT SW AND W TSB07 OCNL LTGICCC
                 OHD CB OHD MOV E P0027 T02000194 $ =
2019-06-23 17:08 METAR KMEM 232208Z 32024G33KT 4SM R36L/2200VP6000FT -TSRA FEW020 BKN034CB OVC250
                 22/19 A2991 RMK AO2 PK WND 33032/2202 WSHFT 2141 LTG DSNT W TSB07 OCNL LTGICCC
                 OHD CB OHD MOV NE P0001 T02170189 $ =
2019-06-23 17:01 METAR KMEM 232201Z 32025G33KT 7SM -RA FEW020 BKN036 OVC250 22/19 A2990 RMK AO2
                 PK WND 31032/2200 WSHFT 2141 LTG DSNT W OCNL LTGICCC DSNT W-N CB DSNT W-N MOV NE
                 P0000 T02220189 $ =
2019-06-23 16:54 METAR KMEM 232154Z 32026G33KT 7SM -RA FEW020 BKN036 OVC250 23/18 A2990 RMK AO2
                 PK WND 32033/2154 WSHFT 2133 LTG DSNT W RAB53 SLP119 OCNL LTGICCC DSNT SW-N CB
                 DSNT SW-N MOV NE P0000 T02330183 $ =
2019-06-23 16:47 METAR KMEM 232147Z 34020G33KT 10SM FEW026 SCT048 BKN250 25/19 A2990 RMK AO2 PK
                 WND 31033/2143 WSHFT 2133 LTG DSNT W-N PRESRR T02500189 $ =
2019-06-23 15:54 METAR KMEM 232054Z 20017G24KT 10SM FEW044 SCT050 BKN200 32/24 A2988 RMK AO2 PK
                 WND 20026/2019 SLP113 T03220239 56027 $ =
2019-06-23 14:54 METAR KMEM 231954Z 19017KT 10SM FEW041 SCT050 SCT200 33/24 A2990 RMK AO2 SLP120
                 T03280244 $ =
2019-06-23 13:54 METAR KMEM 231854Z 21011G19KT 10SM FEW034 BKN044 BKN055 32/24 A2994 RMK AO2
                 SLP133 T03170239 $ =
2019-06-23 12:54 METAR KMEM 231754Z 21013G18KT 10SM FEW031 SCT060 SCT075 BKN200 31/24 A2996 RMK
                 AO2 PK WND 19026/1729 SLP141 60000 T03110244 10317 20261 55002 $ =
2019-06-23 11:54 METAR KMEM 231654Z 22012G20KT 10SM FEW024 SCT032 SCT200 30/24 A2996 RMK AO2 PK
                 WND 19028/1636 SLP140 T03000244 $ =
2019-06-23 10:54 METAR KMEM 231554Z 21016G23KT 10SM SCT027 BKN150 31/24 A2996 RMK AO2 SLP139
                 T03060239 $ =
2019-06-23 09:54 METAR KMEM 231454Z 22014G20KT 10SM SCT027 SCT035 BKN200 29/24 A2997 RMK AO2
                 SLP143 T02890239 58003 $ =
2019-06-23 08:54 METAR KMEM 231354Z 21009KT 10SM SCT018 SCT024 BKN200 28/25 A2998 RMK AO2 SLP149
                 T02830250 $ =
2019-06-23 07:54 METAR KMEM 231254Z 22008KT 10SM FEW018 BKN220 BKN250 28/25 A2999 RMK AO2 SLP150
                 T02780250 $ =
2019-06-23 06:54 METAR KMEM 231154Z 22008KT 10SM BKN210 BKN250 26/24 A2998 RMK AO2 SLP146
                 T02610239 10261 20228 53004 $ =
2019-06-23 05:54 METAR KMEM 231054Z 19006KT 10SM SCT230 24/23 A2995 RMK AO2 SLP139 T02440228 $ =
2019-06-23 04:54 METAR KMEM 230954Z 19006KT 10SM BKN250 24/22 A2994 RMK AO2 SLP135 T02390222 $ =
2019-06-23 03:54 METAR KMEM 230854Z 18005KT 10SM SCT250 23/22 A2996 RMK AO2 SLP142 T02280217
                 55007 $ =
2019-06-23 02:54 METAR KMEM 230754Z 16006KT 10SM BKN250 23/21 A2996 RMK AO2 SLP141 T02330211 $ =
2019-06-23 01:54 METAR KMEM 230654Z 14006KT 10SM BKN250 23/21 A2997 RMK AO2 SLP145 T02280211 $ =
2019-06-23 00:54 METAR KMEM 230554Z 15007KT 10SM SCT250 23/21 A2998 RMK AO2 SLP148 60000
                 T02280211 10278 20228 403330228 58004 $ =
2019-06-22 23:54 METAR KMEM 230454Z 12004KT 10SM FEW250 23/21 A3000 RMK AO2 SLP154 T02330206 $ =
2019-06-22 22:54 METAR KMEM 230354Z 14005KT 10SM FEW250 24/21 A2999 RMK AO2 SLP153 T02440206 $ =
2019-06-22 21:54 METAR KMEM 230254Z 17009KT 10SM SCT150 BKN250 25/20 A2999 RMK AO2 SLP152 60000
                 T02500200 53002 $ =
2019-06-22 20:54 METAR KMEM 230154Z 17007KT 10SM FEW100 SCT150 BKN200 BKN250 24/19 A2999 RMK AO2
                 SLP151 T02440194 $ =
2019-06-22 19:54 METAR KMEM 230054Z 15012KT 10SM FEW025 SCT045 BKN180 BKN250 24/22 A2998 RMK AO2
                 RAE2358 TSE14 SLP147 P0000 T02440222 $ =
2019-06-22 19:15 METAR KMEM 230015Z 16007KT 10SM FEW045 SCT090 BKN180 BKN250 27/23 A2997 RMK AO2
                 LTG DSNT E RAE2358 TSE14 CB DSNT E MOV NE P0000 T02670228 $ =
2019-06-22 18:54 METAR KMEM 222354Z 12005KT 7SM -TSRA SCT040CB BKN090 BKN150 OVC250 27/23 A2999
                 RMK AO2 LTG DSNT E RAB33 TSB35 SLP150 OCNL LTGICCCCG SE-E TS SE-E MOV NE P0000
                 60000 T02670228 10333 20261 56003 $ =
2019-06-22 18:36 METAR KMEM 222336Z 15007KT 7SM -TSRA SCT040CB BKN090 BKN150 BKN250 27/22 A3000
                 RMK AO2 LTG DSNT NE AND NW RAB33 TSB35 OCNL LTGICCCCG SE TS SE MOV N P0000
                 T02670217 $ =
2019-06-22 17:54 METAR KMEM 222254Z 11006KT 10SM SCT050 BKN090 BKN150 BKN250 27/21 A3001 RMK AO2
                 LTG DSNT N-SE SLP156 T02720211 $ =
2019-06-22 16:54 METAR KMEM 222154Z 17009KT 7SM FEW035 SCT065 BKN150 BKN250 28/22 A2998 RMK AO2
                 WSHFT 2112 LTG DSNT NE-S SLP147 T02830222 $ =
2019-06-22 16:26 METAR KMEM 222126Z 18015KT 10SM FEW045 FEW055 29/23 A3000 RMK AO2 WSHFT 2112 LTG
                 DSNT ALQDS T02890233 $ =
2019-06-22 15:54 METAR KMEM 222054Z 27006KT 10SM VCTS FEW040 BKN050 BKN070 33/24 A3000 RMK AO2
                 LTG DSNT ALQDS RAE1959 TSE1955 SLP152 CB SE MOV NE P0000 60000 T03330239 56010 $
                 =
2019-06-22 15:10 METAR KMEM 222010Z 27008KT 10SM VCTS FEW040CB BKN050 BKN070 33/26 A2999 RMK AO2
                 LTG DSNT E-SW RAE1959 TSE1955 CB SE MOV NE P0000 T03330256 $ =
2019-06-22 15:01 METAR KMEM 222001Z VRB03KT 6SM HZ FEW040 BKN050 BKN070 33/26 A3000 RMK AO2 LTG
                 DSNT E-SW RAE1959 TSE1955 P0000 T03280256 $ =
2019-06-22 14:54 METAR KMEM 221954Z 28008KT 8SM -TSRA SCT040CB BKN050 32/25 A3000 RMK AO2 LTG
                 DSNT SE-SW RAB50 TSB40 SLP154 OCNL LTCICCC W TS MOV NE P0000 T03220250 $ =
2019-06-22 14:46 METAR KMEM 221946Z 25007KT 10SM TS SCT040CB BKN050 32/24 A3000 RMK AO2 LTG DSNT
                 SE-W TSB40 OCNL LTCICCC W TS MOV NE T03220239 $ =
2019-06-22 13:54 METAR KMEM 221854Z 25009KT 10SM SCT037 BKN041 33/25 A3001 RMK AO2 LTG DSNT SE
                 AND W SLP156 T03280250 $ =
2019-06-22 12:54 METAR KMEM 221754Z 25006KT 10SM BKN032 BKN039 32/26 A3003 RMK AO2 LTG DSNT S
                 SLP164 T03220256 10322 20256 58003 $ =
2019-06-22 12:40 METAR KMEM 221740Z 29007KT 10SM BKN032 32/25 A3003 RMK AO2 T03170250 $ =
2019-06-22 11:54 METAR KMEM 221654Z 25008KT 10SM FEW027 SCT032 SCT045 31/25 A3004 RMK AO2 LTG
                 DSNT S SLP168 T03110250 $ =
2019-06-22 10:54 METAR KMEM 221554Z 23011G16KT 10SM FEW024 BKN055 30/25 A3004 RMK AO2 SLP167
                 T03000250 $ =
2019-06-22 10:40 METAR KMEM 221540Z 23011G18KT 190V250 10SM FEW024 SCT029 BKN060 31/26 A3004 RMK
                 AO2 T03060256 $ =
2019-06-22 10:25 METAR KMEM 221525Z 26008KT 10SM FEW022 BKN031 OVC055 29/25 A3005 RMK AO2
                 T02940250 $ =
2019-06-22 09:54 METAR KMEM 221454Z 24012G16KT 10SM SCT020 BKN026 BKN033 29/25 A3004 RMK AO2
                 SLP167 T02890250 51015 $ =
2019-06-22 09:45 METAR KMEM 221445Z VRB05KT 10SM SCT020 BKN026 BKN033 29/26 A3004 RMK AO2
                 T02940256 $ =
2019-06-22 09:06 METAR KMEM 221406Z 22006KT 10SM FEW015 SCT020 BKN044 28/26 A3002 RMK AO2
                 T02830256 $ =
2019-06-22 08:54 METAR KMEM 221354Z 21008G16KT 160V240 10SM SCT018 BKN025 BKN044 28/26 A3002 RMK
                 AO2 SLP161 T02780256 $ =
2019-06-22 07:54 METAR KMEM 221254Z 22007KT 10SM BKN015 OVC021 27/25 A3001 RMK AO2 SLP158
                 T02670250 $ =
2019-06-22 07:01 METAR KMEM 221201Z 20009KT 10SM BKN019 26/24 A2999 RMK AO2 T02610244 $ =
2019-06-22 06:54 METAR KMEM 221154Z 20008KT 10SM SCT019 26/24 A2999 RMK AO2 SLP152 70005
                 T02560244 10256 20228 53020 $ =
2019-06-22 05:54 METAR KMEM 221054Z 18006KT 10SM FEW019 24/24 A2997 RMK AO2 SLP143 T02440239 =
2019-06-22 04:54 METAR KMEM 220954Z 18008KT 10SM CLR 24/23 A2995 RMK AO2 SLP135 T02390228 =
2019-06-22 03:54 METAR KMEM 220854Z 18012KT 10SM FEW030 24/22 A2993 RMK AO2 SLP131 T02390222
                 55001 =
2019-06-22 02:54 METAR KMEM 220754Z 17008KT 10SM FEW030 24/21 A2993 RMK AO2 SLP129 T02390206 =
2019-06-22 01:54 METAR KMEM 220654Z 17009KT 10SM FEW034 23/19 A2993 RMK AO2 SLP131 T02280194 =
2019-06-22 00:54 METAR KMEM 220554Z 17009KT 10SM SCT034 23/19 A2994 RMK AO2 SLP133 60005
                 T02280194 10311 20222 403330222 58009 =
2019-06-21 23:54 METAR KMEM 220454Z 15009KT 10SM FEW110 SCT250 23/19 A2996 RMK AO2 SLP140
                 T02280189 =
2019-06-21 22:54 METAR KMEM 220354Z 14007G16KT 10SM FEW055 BKN250 23/19 A2997 RMK AO2 SLP145
                 T02280194 =
2019-06-21 21:54 METAR KMEM 220254Z 10008G17KT 10SM FEW040 SCT090 BKN250 22/20 A2996 RMK AO2 PK
                 WND 08026/0203 LTG DSNT SE-SW SLP142 P0005 60005 T02220200 50023 =
2019-06-21 20:54 METAR KMEM 220154Z 05015G32KT 7SM SCT034 BKN055 OVC250 24/19 A3000 RMK AO2 PK
                 WND 03035/0111 LTG DSNT E SLP155 T02440189 =
2019-06-21 20:46 METAR KMEM 220146Z 05025G32KT 7SM SCT034 BKN055 OVC250 24/19 A3001 RMK AO2 PK
                 WND 03035/0111 LTG DSNT E AND NW T02440189 =
2019-06-21 20:23 METAR KMEM 220123Z 03024G34KT 7SM BKN034 OVC065 26/19 A3000 RMK AO2 PK WND
                 03035/0111 LTG DSNT N-E PRESRR T02610194 =
2019-06-21 20:12 METAR KMEM 220112Z 02027G35KT 10SM SQ BKN042 OVC250 29/23 A2998 RMK AO2 PK WND
                 03035/0111 LTG DSNT NW-NE T02940228 =
2019-06-21 19:54 METAR KMEM 220054Z 35005KT 10SM BKN040 BKN250 31/24 A2996 RMK AO2 LTG DSNT NW-NE
                 PRESRR SLP142 T03060244 =
2019-06-21 18:54 METAR KMEM 212354Z 20009KT 10SM SCT046 BKN250 31/24 A2989 RMK AO2 SLP118
                 T03110244 10333 20311 58003 =
2019-06-21 17:54 METAR KMEM 212254Z 20015G22KT 10SM SCT045 BKN250 32/24 A2990 RMK AO2 SLP118
                 T03220239 =
2019-06-21 16:54 METAR KMEM 212154Z 21016G21KT 10SM SCT042 BKN250 33/25 A2991 RMK AO2 SLP121
                 T03330250 =
2019-06-21 15:54 METAR KMEM 212054Z 21013G22KT 10SM SCT043 BKN250 33/24 A2990 RMK AO2 PK WND
                 21027/2043 SLP120 T03280244 56011 =
2019-06-21 15:39 METAR KMEM 212039Z 20015G24KT 10SM SCT043 33/24 A2991 RMK AO2 T03330244 =
2019-06-21 14:54 METAR KMEM 211954Z 21015G23KT 10SM BKN039 33/24 A2991 RMK AO2 SLP124 T03330244 =
2019-06-21 13:54 METAR KMEM 211854Z 18015KT 10SM SCT039 33/25 A2992 RMK AO2 SLP127 T03280250 =
2019-06-21 12:54 METAR KMEM 211754Z 18015KT 10SM SCT033 33/25 A2993 RMK AO2 SLP131 T03280250
                 10328 20250 58006 =
2019-06-21 12:47 METAR KMEM 211747Z 20013KT 10SM SCT030 32/25 A2994 RMK AO2 T03220250 =
2019-06-21 11:54 METAR KMEM 211654Z 22012G22KT 190V330 10SM BKN028 31/25 A2995 RMK AO2 SLP136 BKN
                 V SCT T03110250 =
2019-06-21 11:16 METAR KMEM 211616Z 20012KT 10SM BKN023 31/26 A2995 RMK AO2 BKN V SCT T03060256 =
2019-06-21 10:54 METAR KMEM 211554Z 19009G23KT 10SM SCT019 BKN028 30/26 A2995 RMK AO2 SLP136
                 T03000256 =
2019-06-21 10:36 METAR KMEM 211536Z 20011G19KT 10SM SCT016 BKN026 29/26 A2995 RMK AO2 T02940256 =
2019-06-21 09:54 METAR KMEM 211454Z 20009KT 10SM BKN014 OVC024 28/26 A2995 RMK AO2 SLP138
                 T02780256 50003 =
2019-06-21 09:25 METAR KMEM 211425Z 18010KT 10SM BKN011 OVC040 28/25 A2996 RMK AO2 T02780250 =
2019-06-21 08:54 METAR KMEM 211354Z 18010KT 10SM SCT011 BKN041 BKN250 28/25 A2996 RMK AO2 LTG
                 DSNT NE SLP141 T02780250 =
2019-06-21 07:54 METAR KMEM 211254Z 17008KT 10SM SCT033 BKN044 26/23 A2995 RMK AO2 LTG DSNT N AND
                 SE SLP137 T02560233 =
2019-06-21 06:54 METAR KMEM 211154Z 17008KT 10SM FEW035 SCT046 SCT130 25/23 A2994 RMK AO2 SLP136
                 T02500228 10250 20233 53019 =
2019-06-21 06:08 METAR KMEM 211108Z 17006KT 10SM SCT039 SCT046 24/23 A2992 RMK AO2 T02440228 =
2019-06-21 05:54 METAR KMEM 211054Z 17007KT 10SM BKN039 BKN045 25/23 A2992 RMK AO2 SLP127
                 T02500228 =
2019-06-21 05:50 METAR KMEM 211050Z 17007KT 10SM BKN039 BKN045 25/23 A2992 RMK AO2 =
2019-06-21 05:32 METAR KMEM 211032Z 17006KT 10SM SCT035 BKN043 25/22 A2991 RMK AO2 T02500222 =
2019-06-21 05:02 METAR KMEM 211002Z 16004KT 10SM BKN034 24/22 A2989 RMK AO2 T02440222 =
2019-06-21 04:54 METAR KMEM 210954Z 17006KT 10SM SCT036 24/22 A2989 RMK AO2 SLP118 T02440222 =
2019-06-21 03:54 METAR KMEM 210854Z 18007KT 10SM FEW040 24/22 A2989 RMK AO2 SLP116 T02440222
                 56007 =
2019-06-21 02:54 METAR KMEM 210754Z 17006KT 10SM CLR 24/22 A2989 RMK AO2 SLP117 T02390222 =
2019-06-21 01:54 METAR KMEM 210654Z 00000KT 10SM CLR 25/22 A2989 RMK AO2 SLP119 T02500222 =
2019-06-21 00:54 METAR KMEM 210554Z 18007KT 10SM CLR 24/22 A2991 RMK AO2 SLP123 T02440222 10294
                 20244 403110211 51009 =
2019-06-20 23:54 METAR KMEM 210454Z 20005KT 10SM CLR 25/22 A2990 RMK AO2 SLP122 T02500222 =
2019-06-20 22:54 METAR KMEM 210354Z 20006KT 10SM CLR 26/22 A2989 RMK AO2 SLP119 T02560222 =
2019-06-20 21:54 METAR KMEM 210254Z 18006KT 10SM CLR 26/22 A2988 RMK AO2 SLP114 T02560217 53013 =
2019-06-20 20:54 METAR KMEM 210154Z 20003KT 10SM CLR 28/21 A2986 RMK AO2 SLP108 T02780211 =
2019-06-20 19:54 METAR KMEM 210054Z 20005KT 10SM FEW042 28/22 A2985 RMK AO2 SLP102 T02780217 =
2019-06-20 18:54 METAR KMEM 202354Z 21005KT 10SM FEW044 29/21 A2984 RMK AO2 SLP101 T02940211
                 10311 20278 55000 =
2019-06-20 17:54 METAR KMEM 202254Z 25006KT 10SM FEW044 30/21 A2984 RMK AO2 SLP099 T03000211 =
2019-06-20 16:54 METAR KMEM 202154Z 28004G18KT 10SM SCT044 31/22 A2984 RMK AO2 SLP100 T03060217 =
2019-06-20 15:54 METAR KMEM 202054Z 22008KT 10SM BKN044 BKN060 30/21 A2984 RMK AO2 SLP101
                 T03000211 58003 =
2019-06-20 14:54 METAR KMEM 201954Z 26010G14KT 10SM BKN040 BKN055 30/21 A2985 RMK AO2 SLP104
                 T03000211 =
2019-06-20 14:12 METAR KMEM 201912Z VRB05KT 10SM SCT036 BKN047 30/22 A2986 RMK AO2 T03000222 $ =
2019-06-20 14:01 METAR KMEM 201901Z 29006KT 10SM FEW036 SCT047 29/22 A2985 RMK AO2 T02940217 $ =
2019-06-20 13:54 METAR KMEM 201854Z 23007KT 210V270 10SM BKN034 BKN048 29/22 A2985 RMK AO2 SLP104
                 T02940222 $ =
2019-06-20 13:36 METAR KMEM 201836Z VRB05KT 10SM BKN032 BKN048 28/22 A2985 RMK AO2 T02830217 $ =
2019-06-20 12:54 METAR KMEM 201754Z 24005KT 10SM SCT029 BKN048 28/22 A2985 RMK AO2 SLP103
                 T02830222 10289 20211 51013 $ =
2019-06-20 12:47 METAR KMEM 201747Z 24007G15KT 220V290 10SM SCT029 BKN048 28/22 A2985 RMK AO2
                 T02780217 $ =
2019-06-20 11:54 METAR KMEM 201654Z 24008KT 10SM BKN026 BKN055 BKN250 27/21 A2985 RMK AO2 SLP102
                 T02720211 $ =
2019-06-20 10:54 METAR KMEM 201554Z 26009G19KT 10SM BKN026 BKN055 BKN250 26/21 A2983 RMK AO2
                 SLP097 T02610206 =
2019-06-20 10:30 METAR KMEM 201530Z 24011G20KT 10SM BKN026 BKN055 OVC250 26/21 A2983 RMK AO2
                 T02610206 =
2019-06-20 09:54 METAR KMEM 201454Z COR 25010KT 10SM FEW020 FEW050 SCT250 26/20 A2981 RMK AO2
                 SLP090 T02610200 51020 =
2019-06-20 08:54 METAR KMEM 201354Z 26008G16KT 10SM FEW065 SCT090 SCT250 24/21 A2980 RMK AO2
                 SLP085 T02440206 =
2019-06-20 07:54 METAR KMEM 201254Z 24009G16KT 10SM SCT090 BKN150 BKN250 23/20 A2977 RMK AO2
                 SLP077 T02280200 =
2019-06-20 06:54 METAR KMEM 201154Z 19005KT 10SM FEW090 BKN150 BKN250 21/20 A2975 RMK AO2 SLP071
                 60000 70055 T02110200 10222 20211 50008 $ =
2019-06-20 05:54 METAR KMEM 201054Z VRB03KT 10SM FEW100 BKN150 OVC250 21/20 A2975 RMK AO2 SLP071
                 T02110200 $ =
2019-06-20 04:54 METAR KMEM 200954Z 21005KT 10SM SCT100 OVC230 21/21 A2975 RMK AO2 LTG DSNT NW
                 SLP069 T02110206 $ =
2019-06-20 03:54 METAR KMEM 200854Z 20008KT 10SM FEW060 BKN095 OVC250 21/21 A2973 RMK AO2 SLP062
                 60000 T02110206 50010 $ =
2019-06-20 02:54 METAR KMEM 200754Z 19009KT 10SM BKN100 OVC110 21/21 A2974 RMK AO2 LTG DSNT NE
                 SLP065 T02110206 $ =
2019-06-20 01:54 METAR KMEM 200654Z 07006KT 10SM FEW055 BKN090 OVC250 22/21 A2973 RMK AO2 RAE16
                 SLP062 P0000 T02170206 $ =
2019-06-20 00:54 METAR KMEM 200554Z VRB04KT 8SM -RA FEW055 BKN090 OVC250 22/21 A2970 RMK AO2 PK
                 WND 28034/0501 LTG DSNT NE-SE TSE39 SLP052 P0050 60055 T02170206 10311 20211
                 403280211 50002 $ =
2019-06-20 00:40 METAR KMEM 200540Z 20013G20KT 7SM -RA FEW015 SCT055 BKN090 OVC250 22/20 A2970
                 RMK AO2 PK WND 28034/0501 LTG DSNT NE-SE TSE39 OCNL LTGICCCCG DSNT NE CB DSNT NE
                 MOV E P0048 T02170200 $ =
2019-06-20 00:31 METAR KMEM 200531Z 21009KT 7SM -TSRA FEW009 SCT042CB OVC075 21/20 A2972 RMK AO2
                 PK WND 28034/0501 LTG DSNT ALQDS FRQ LTGICCCCG N-SE TS N-SE MOV E P0048
                 T02110200 $ =
2019-06-20 00:20 METAR KMEM 200520Z 25013G24KT 5SM -TSRA FEW013 SCT035CB BKN060 OVC250 21/20
                 A2973 RMK AO2 PK WND 28034/0501 LTG DSNT NW-E FRQ LTGICCCCG N-SE TS N-SE MOV E
                 P0047 T02110200 $ =
2019-06-20 00:11 METAR KMEM 200511Z 24015G26KT 4SM -TSRA SCT013 BKN035CB OVC050 21/20 A2976 RMK
                 AO2 PK WND 28034/0501 LTG DSNT ALQDS FRQ LTGICCCCG ALQDS TS ALQDS MOV E P0046
                 T02110200 $ =
2019-06-19 23:56 METAR KMEM 200456Z COR 27023G33KT 1 1/4SM +TSRA FEW020 BKN035CB OVC050 22/21
                 A2975 RMK AO2 PK WND 27033/0455 LTG DSNT ALQDS FRQ LTGICCCCG ALQDS TS ALQDS MOV
                 E P0010 T02170206 $ =
2019-06-19 23:54 METAR KMEM 200454Z 27042G58KT 3SM +TSRA BKN032CB OVC055 22/21 A2975 RMK AO2 LTG
                 DSNT ALQDS PRESRR SLP070 FRQ LTGICCCCG ALQDS TS ALQDS MOV E P0005 T02220206 $ =
2019-06-19 23:23 METAR KMEM 200423Z 21010G19KT 10SM -TSRA FEW050CB SCT120 OVC140 28/22 A2970 RMK
                 AO2 LTG DSNT ALQDS RAB21 TSB23 FRQ LTGICCCCG SW-NW TS SW-NW P0000 T02830217 $ =
2019-06-19 22:54 METAR KMEM 200354Z 20008KT 10SM FEW100 BKN130 OVC230 28/22 A2970 RMK AO2 LTG
                 DSNT N AND NE AND SW SLP051 T02830217 $ =
2019-06-19 21:54 METAR KMEM 200254Z 21006KT 10SM OVC100 29/22 A2969 RMK AO2 SLP050 T02940217
                 51008 $ =
2019-06-19 20:54 METAR KMEM 200154Z 21007KT 10SM BKN100 29/21 A2968 RMK AO2 SLP047 T02890211 $ =
2019-06-19 19:54 METAR KMEM 200054Z 22005KT 10SM FEW250 29/21 A2968 RMK AO2 SLP047 T02940211 $ =
2019-06-19 18:54 METAR KMEM 192354Z 23009KT 10SM FEW100 FEW250 31/21 A2967 RMK AO2 SLP043
                 T03110206 10328 20300 58013 $ =
2019-06-19 17:54 METAR KMEM 192254Z 22012G19KT 10SM FEW045 SCT250 32/21 A2970 RMK AO2 SLP052
                 T03170211 $ =
2019-06-19 16:54 METAR KMEM 192154Z 22011G19KT 10SM FEW045 FEW250 32/21 A2970 RMK AO2 SLP053
                 T03220211 $ =
2019-06-19 15:54 METAR KMEM 192054Z 23010G19KT 10SM SCT045 SCT250 33/22 A2971 RMK AO2 SLP056
                 T03280222 56018 $ =
2019-06-19 14:54 METAR KMEM 191954Z 23015G18KT 10SM SCT042 BKN150 BKN250 32/23 A2972 RMK AO2
                 SLP060 T03220233 $ =
2019-06-19 13:56 METAR KMEM 191856Z 20012G19KT 10SM BKN040 BKN150 BKN250 31/23 A2975 RMK AO2
                 T03060228 $ =
2019-06-19 13:54 METAR KMEM 191854Z VRB04KT 10SM BKN040 BKN150 BKN250 31/23 A2975 RMK AO2 SLP068
                 T03060228 $ =
2019-06-19 12:54 METAR KMEM 191754Z 21010KT 10SM BKN040 BKN150 BKN250 31/23 A2976 RMK AO2 SLP074
                 T03110228 10311 20233 58023 =
2019-06-19 11:54 METAR KMEM 191654Z 20011G16KT 10SM FEW033 SCT045 BKN250 30/23 A2978 RMK AO2
                 SLP081 T03000233 =
2019-06-19 10:54 METAR KMEM 191554Z 21011G18KT 10SM FEW050 SCT080 BKN250 29/23 A2981 RMK AO2
                 SLP090 T02890228 =
2019-06-19 09:54 METAR KMEM 191454Z 23008KT 10SM FEW045 SCT070 BKN250 28/23 A2983 RMK AO2 SLP097
                 T02830228 50010 =
2019-06-19 08:54 METAR KMEM 191354Z 22007G17KT 10SM SCT045 BKN070 BKN250 27/22 A2984 RMK AO2
                 SLP101 T02720222 =
2019-06-19 07:54 METAR KMEM 191254Z 22007KT 170V250 10SM FEW070 BKN250 26/22 A2982 RMK AO2 SLP095
                 T02560222 =
2019-06-19 06:54 METAR KMEM 191154Z 20008KT 10SM FEW090 BKN250 23/22 A2980 RMK AO2 SLP087
                 T02330222 10239 20222 53000 $ =
2019-06-19 05:54 METAR KMEM 191054Z 21004KT 10SM FEW085 BKN250 23/22 A2981 RMK AO2 SLP090
                 T02280217 $ =
2019-06-19 04:54 METAR KMEM 190954Z 22004KT 10SM SCT250 23/22 A2979 RMK AO2 SLP083 T02330217 $ =
2019-06-19 03:54 METAR KMEM 190854Z 22006KT 10SM SCT250 23/22 A2980 RMK AO2 SLP086 T02330217
                 58014 $ =
2019-06-19 02:54 METAR KMEM 190754Z 00000KT 10SM SCT090 23/22 A2982 RMK AO2 SLP094 T02330222 $ =
2019-06-19 01:54 METAR KMEM 190654Z 19007KT 10SM FEW100 24/22 A2983 RMK AO2 SLP098 T02390222 $ =
2019-06-19 00:54 METAR KMEM 190554Z 19004KT 10SM FEW048 SCT100 24/22 A2984 RMK AO2 SLP101
                 T02390217 10289 20239 403060211 58000 $ =
2019-06-18 23:54 METAR KMEM 190454Z 19007KT 10SM BKN090 25/22 A2985 RMK AO2 SLP104 T02500222 $ =
2019-06-18 22:54 METAR KMEM 190354Z 19006KT 10SM BKN085 26/23 A2986 RMK AO2 SLP108 T02560228 $ =
2019-06-18 21:54 METAR KMEM 190254Z 19005KT 10SM BKN060 26/22 A2984 RMK AO2 SLP101 T02560222
                 53008 $ =
2019-06-18 20:54 METAR KMEM 190154Z 18003KT 10SM SCT090 27/22 A2983 RMK AO2 SLP096 T02670217 $ =
2019-06-18 19:54 METAR KMEM 190054Z 00000KT 10SM FEW037 BKN085 28/21 A2983 RMK AO2 SLP095
                 T02830206 $ =
2019-06-18 18:54 METAR KMEM 182354Z 25003KT 10SM FEW037 BKN095 27/21 A2982 RMK AO2 SLP093 CB DSNT
                 NE T02720211 10306 20267 56009 $ =
2019-06-18 17:54 METAR KMEM 182254Z 29006KT 10SM FEW037 BKN080 BKN100 27/21 A2982 RMK AO2 SLP095
                 T02670211 $ =
2019-06-18 16:54 METAR KMEM 182154Z 29009KT 10SM SCT060 BKN070 BKN100 27/22 A2983 RMK AO2 SLP097
                 VCSH NW T02720222 $ =
2019-06-18 15:54 METAR KMEM 182054Z 19005KT 10SM SCT037 BKN080 BKN150 BKN250 29/22 A2985 RMK AO2
                 SLP102 CB DSNT W T02940217 56022 $ =
2019-06-18 14:54 METAR KMEM 181954Z VRB04KT 10SM SCT033 BKN050 BKN080 28/22 A2986 RMK AO2 SLP108
                 T02830217 $ =
2019-06-18 13:54 METAR KMEM 181854Z 00000KT 10SM SCT024 BKN050 BKN080 28/23 A2989 RMK AO2 SLP118
                 T02830233 $ =
2019-06-18 13:44 METAR KMEM 181844Z 00000KT 10SM SCT020 BKN045 BKN075 28/23 A2989 RMK AO2
                 T02780233 $ =
2019-06-18 13:00 METAR KMEM 181800Z VRB05KT 10SM SCT013CB BKN028 28/24 A2991 RMK AO2 CB N MOV NE
                 T02780239 $ =
2019-06-18 12:54 METAR KMEM 181754Z 00000KT 10SM SCT013 BKN028 27/23 A2991 RMK AO2 SLP125 60000
                 T02670233 10267 20222 58005 $ =
2019-06-18 12:41 METAR KMEM 181741Z 16004KT 10SM SCT013 BKN025 27/24 A2992 RMK AO2 T02670239 $ =
2019-06-18 11:54 METAR KMEM 181654Z 00000KT 10SM FEW009 BKN015 OVC022 25/23 A2993 RMK AO2 SLP129
                 T02500228 $ =
2019-06-18 11:46 METAR KMEM 181646Z 00000KT 10SM SCT009 BKN015 OVC022 25/23 A2993 RMK AO2
                 T02500233 $ =
2019-06-18 10:54 METAR KMEM 181554Z 15005KT 10SM BKN008 OVC012 24/23 A2993 RMK AO2 SLP133
                 T02390228 $ =
2019-06-18 10:16 METAR KMEM 181516Z 18004KT 8SM BKN008 OVC012 23/23 A2993 RMK AO2 T02330228 $ =
2019-06-18 09:54 METAR KMEM 181454Z VRB03KT 6SM BR OVC005 23/23 A2993 RMK AO2 DZE05 SLP131 P0000
                 60000 T02330228 53000 $ =
2019-06-18 09:37 METAR KMEM 181437Z VRB03KT 3SM BR OVC006 23/23 A2993 RMK AO2 SFC VIS 5 DZE05 CIG
                 003V009 P0000 T02280228 $ =
2019-06-18 09:06 METAR KMEM 181406Z 20004KT 2SM BR OVC003 23/23 A2992 RMK AO2 SFC VIS 4 DZE05 CIG
                 003V006 P0000 T02280228 $ =
2019-06-18 08:54 METAR KMEM 181354Z 20004KT 1SM R36L/P6000FT -DZ BR OVC003 23/23 A2992 RMK AO2
                 SFC VIS 3 DZB51 SLP129 P0000 T02280228 $ =
2019-06-18 08:17 METAR KMEM 181317Z 20003KT 1SM R36L/P6000FT BR OVC003 23/23 A2993 RMK AO2 SFC
                 VIS 1 1/2 T02280228 $ =
2019-06-18 07:54 METAR KMEM 181254Z 19004KT 2 1/2SM BR OVC003 22/22 A2993 RMK AO2 SLP131
                 T02220222 $ =
2019-06-18 07:24 METAR KMEM 181224Z 17004KT 6SM BR OVC004 22/22 A2993 RMK AO2 T02220222 $ =
2019-06-18 06:54 METAR KMEM 181154Z 20003KT 6SM BR OVC005 22/22 A2993 RMK AO2 SLP129 60022 70132
                 T02220222 10222 20211 53003 $ =
2019-06-18 05:54 METAR KMEM 181054Z 18006KT 8SM BKN008 OVC013 22/22 A2992 RMK AO2 SLP127
                 T02220217 $ =
2019-06-18 04:54 METAR KMEM 180954Z 00000KT 9SM BKN009 BKN020 OVC027 22/21 A2992 RMK AO2 SLP126
                 T02170211 $ =
2019-06-18 04:46 METAR KMEM 180946Z 00000KT 9SM BKN009 BKN026 OVC039 22/22 A2992 RMK AO2
                 T02170217 $ =
2019-06-18 04:38 METAR KMEM 180938Z 00000KT 10SM BKN011 BKN023 OVC041 22/22 A2992 RMK AO2 CIG
                 007V012 T02170217 $ =
2019-06-18 04:22 METAR KMEM 180922Z 00000KT 10SM SCT011 BKN027 BKN034 22/21 A2992 RMK AO2
                 T02170211 $ =
2019-06-18 04:16 METAR KMEM 180916Z 23003KT 10SM SCT011 BKN032 BKN046 22/22 A2992 RMK AO2
                 T02170217 $ =
2019-06-18 03:54 METAR KMEM 180854Z 21004KT 10SM FEW036 BKN047 BKN055 22/22 A2992 RMK AO2
                 RAB38E45 SLP126 P0000 60022 T02170217 56008 $ =
2019-06-18 03:30 METAR KMEM 180830Z 21005KT 10SM FEW016 SCT036 BKN046 22/22 A2992 RMK AO2
                 T02170217 $ =
2019-06-18 03:20 METAR KMEM 180820Z 19004KT 10SM SCT016 BKN036 OVC046 22/22 A2992 RMK AO2
                 T02170217 $ =
2019-06-18 02:54 METAR KMEM 180754Z 18005KT 10SM BKN017 BKN080 22/21 A2992 RMK AO2 RAE15 SLP127
                 P0003 T02170211 $ =
2019-06-18 02:46 METAR KMEM 180746Z 18003KT 10SM BKN019 BKN080 22/21 A2992 RMK AO2 RAE15 CIG
                 017V027 P0003 T02170211 $ =
2019-06-18 02:38 METAR KMEM 180738Z 00000KT 10SM SCT024 BKN080 BKN110 22/21 A2992 RMK AO2 RAE15
                 P0003 T02170211 $ =
2019-06-18 02:06 METAR KMEM 180706Z 17003KT 4SM +RA BR BKN024 OVC033 22/22 A2992 RMK AO2 P0003
                 T02170217 $ =
2019-06-18 01:54 METAR KMEM 180654Z 17005KT 8SM -RA FEW024 BKN030 OVC070 22/21 A2992 RMK AO2
                 SLP128 P0019 T02170211 $ =
2019-06-18 01:17 METAR KMEM 180617Z 11004KT 8SM -RA FEW028 OVC036 22/21 A2993 RMK AO2 P0017
                 T02170211 $ =
2019-06-18 01:10 METAR KMEM 180610Z 16005KT 2 1/2SM +RA BR BKN033 OVC043 21/21 A2993 RMK AO2
                 P0017 T02110211 $ =
2019-06-18 01:03 METAR KMEM 180603Z 21010G20KT 1 3/4SM +RA BR BKN039 OVC047 21/21 A2994 RMK AO2
                 P0014 T02110206 $ =
2019-06-18 00:54 METAR KMEM 180554Z 20013G19KT 2 1/2SM +RA BR FEW035 BKN046 OVC075 21/21 A2994
                 RMK AO2 RAB20 SLP135 P0014 60110 T02110206 10283 20211 402890211 56001 $ =
2019-06-17 23:54 METAR KMEM 180454Z 15005KT 10SM FEW070 BKN110 OVC160 22/21 A2994 RMK AO2 SLP134
                 T02220211 $ =
2019-06-17 22:54 METAR KMEM 180354Z 13004KT 10SM FEW070 BKN120 BKN250 22/21 A2995 RMK AO2 SLP136
                 T02220211 $ =
2019-06-17 21:54 METAR KMEM 180254Z 11005KT 10SM FEW070 SCT120 BKN150 BKN250 23/21 A2995 RMK AO2
                 SLP136 60096 T02280211 51012 $ =
2019-06-17 21:16 METAR KMEM 180216Z 14004KT 7SM FEW023 BKN075 BKN150 23/22 A2993 RMK AO2
                 T02280217 $ =
2019-06-17 20:54 METAR KMEM 180154Z 18006KT 7SM FEW013 BKN023 BKN075 BKN250 23/22 A2993 RMK AO2
                 RAE45 TSE05 SLP130 P0007 T02280217 $ =
2019-06-17 20:06 METAR KMEM 180106Z 00000KT 5SM -RA BR SCT015 BKN020 BKN110 OVC250 22/22 A2993
                 RMK AO2 TSE05 LTGICCC DSNT N CB DSNT N MOV NE P0005 T02170217 $ =
2019-06-17 19:54 METAR KMEM 180054Z 33008KT 4SM -TSRA BR FEW011 BKN020CB BKN070 OVC250 22/22
                 A2993 RMK AO2 PK WND 16029/0022 RAB19 TSB37 SLP132 OCNL LTGICCC NE TS NE MOV N
                 P0089 T02220217 $ =
2019-06-17 19:42 METAR KMEM 180042Z 25010G20KT 4SM -TSRA BR FEW007 BKN020CB BKN065 OVC250 23/22
                 A2992 RMK AO2 PK WND 16029/0022 RAB19 TSB37 OCNL LTGICCC OHD-NE TS OHD-NE MOV NE
                 P0052 T02330217 $ =
2019-06-17 19:37 METAR KMEM 180037Z 4SM R36L/5500VP6000FT -TSRA BR FEW007 BKN020CB BKN100 OVC250
                 23/22 A2991 RMK AO2 PK WND 16029/0022 RAB19 TSB37 OCNL LTGICCC OHD-NE TS OHD-NE
                 MOV NE P0052 T02330217 $ =
2019-06-17 19:34 METAR KMEM 180034Z 2SM R36L/5500VP6000FT RA BR SCT015 BKN034 BKN110 OVC250 23/22
                 A2991 RMK AO2 PK WND 16029/0022 LTG DSNT SW RAB19 P0052 T02330217 $ =
2019-06-17 19:26 METAR KMEM 180026Z 16013G29KT 3/4SM R36L/1800VP6000FT +RA SCT015 BKN034 BKN110
                 OVC250 24/22 A2991 RMK AO2 PK WND 16029/0022 LTG DSNT SW RAB19 P0006 T02440217 $
                 =
2019-06-17 19:22 METAR KMEM 180022Z 16025G29KT 1 1/2SM R36L/1800VP6000FT -RA FEW017 SCT038 BKN110
                 OVC250 27/22 A2992 RMK AO2 PK WND 16029/0022 LTG DSNT SW RAB19 P0000 T02720217 $
                 =
2019-06-17 18:54 METAR KMEM 172354Z 20004KT 10SM FEW044 BKN140 BKN250 28/22 A2991 RMK AO2 SLP124
                 VCSH 60000 T02830222 10289 20272 55003 $ =
2019-06-17 17:54 METAR KMEM 172254Z 20006KT 10SM FEW040 SCT120 BKN170 OVC250 28/22 A2991 RMK AO2
                 SLP123 T02780217 $ =
2019-06-17 16:54 METAR KMEM 172154Z 22008KT 10SM FEW040 SCT120 BKN160 OVC250 28/22 A2990 RMK AO2
                 SLP122 T02830222 $ =
2019-06-17 15:54 METAR KMEM 172054Z 21009KT 10SM FEW040 SCT080 BKN120 OVC250 28/22 A2992 RMK AO2
                 RAB07E30 SLP126 P0000 60000 T02780217 56016 $ =
2019-06-17 15:07 METAR KMEM 172007Z 21008KT 10SM -RA FEW055 SCT080 BKN110 OVC180 28/22 A2992 RMK
                 AO2 RAB07 P0000 T02780222 $ =
2019-06-17 14:54 METAR KMEM 171954Z 21008KT 10SM FEW085 BKN120 BKN160 OVC250 28/22 A2993 RMK AO2
                 SLP131 T02780217 $ =
2019-06-17 13:54 METAR KMEM 171854Z 20009KT 10SM FEW110 BKN160 OVC250 28/21 A2995 RMK AO2 SLP136
                 T02780211 $ =
2019-06-17 12:54 METAR KMEM 171754Z 21011KT 10SM FEW095 BKN160 OVC250 27/21 A2997 RMK AO2 SLP143
                 T02720206 10289 20222 53003 $ =
2019-06-17 11:54 METAR KMEM 171654Z 20011G20KT 10SM FEW060 BKN160 BKN250 28/21 A2996 RMK AO2
                 SLP140 T02830206 $ =
2019-06-17 10:54 METAR KMEM 171554Z 21010KT 180V250 10SM FEW060 BKN160 BKN250 27/20 A2996 RMK AO2
                 SLP141 T02670200 $ =
2019-06-17 09:54 METAR KMEM 171454Z 21009KT 10SM FEW060 BKN150 OVC250 26/20 A2996 RMK AO2 SLP140
                 T02610200 50006 $ =
2019-06-17 08:54 METAR KMEM 171354Z 19011KT 10SM FEW055 SCT110 BKN250 25/19 A2996 RMK AO2 SLP141
                 T02500194 $ =
2019-06-17 07:54 METAR KMEM 171254Z 20008KT 10SM FEW055 SCT090 SCT120 BKN180 BKN250 23/20 A2995
                 RMK AO2 SLP139 T02280200 $ =
2019-06-17 06:54 METAR KMEM 171154Z 19007KT 10SM FEW120 OVC150 22/19 A2994 RMK AO2 SLP133
                 T02220194 10244 20217 52015 $ =
2019-06-17 05:54 METAR KMEM 171054Z 20010KT 10SM BKN140 BKN250 22/19 A2993 RMK AO2 SLP129
                 T02220194 $ =
2019-06-17 04:54 METAR KMEM 170954Z 20006KT 10SM FEW130 SCT250 22/20 A2991 RMK AO2 SLP122
                 T02170200 $ =
2019-06-17 03:54 METAR KMEM 170854Z 19006KT 10SM FEW150 FEW250 22/21 A2989 RMK AO2 SLP118
                 T02170211 51003 $ =
2019-06-17 02:54 METAR KMEM 170754Z 19005KT 10SM FEW250 22/22 A2989 RMK AO2 SLP116 T02220217 $ =
2019-06-17 01:54 METAR KMEM 170654Z 18008KT 10SM FEW250 23/22 A2989 RMK AO2 SLP119 T02330217 $ =
2019-06-17 00:54 METAR KMEM 170554Z 17007KT 10SM FEW120 OVC140 24/21 A2988 RMK AO2 SLP115
                 T02440211 10272 20239 403060239 58016 $ =
2019-06-16 23:54 METAR KMEM 170454Z 19006KT 10SM FEW070 SCT110 OVC130 24/22 A2993 RMK AO2 SLP130
                 T02440217 $ =
2019-06-16 22:54 METAR KMEM 170354Z 19008KT 10SM FEW110 BKN160 BKN250 25/22 A2994 RMK AO2 SLP134
                 T02500217 $ =
2019-06-16 21:54 METAR KMEM 170254Z 19007KT 10SM FEW110 BKN160 OVC250 25/22 A2993 RMK AO2 SLP132
                 T02500222 53021 $ =
2019-06-16 20:54 METAR KMEM 170154Z 20007KT 10SM FEW160 BKN250 26/22 A2991 RMK AO2 SLP123
                 T02560217 $ =
2019-06-16 19:54 METAR KMEM 170054Z 20007KT 10SM FEW120 BKN250 26/22 A2988 RMK AO2 SLP112
                 T02610222 $ =
2019-06-16 18:54 METAR KMEM 162354Z 19010KT 10SM FEW024 BKN250 27/23 A2987 RMK AO2 SLP110
                 T02720228 10306 20272 55003 $ =
2019-06-16 17:54 METAR KMEM 162254Z 23013G18KT 10SM FEW027 FEW120 SCT180 BKN250 28/22 A2987 RMK
                 AO2 SLP109 T02830222 $ =
2019-06-16 16:54 METAR KMEM 162154Z 20014KT 10SM FEW030 BKN120 BKN250 28/23 A2986 RMK AO2 SLP106
                 T02780228 $ =
2019-06-16 15:54 METAR KMEM 162054Z 18015G23KT 10SM SCT030 BKN120 29/23 A2988 RMK AO2 SLP114
                 T02890228 58009 $ =
2019-06-16 15:45 METAR KMEM 162045Z 19017KT 10SM SCT030 BKN120 29/23 A2988 RMK AO2 T02890228 $ =
2019-06-16 14:54 METAR KMEM 161954Z 19018G27KT 10SM BKN032 BKN046 OVC120 30/24 A2990 RMK AO2 PK
                 WND 17027/1945 SLP119 T03000239 $ =
2019-06-16 14:45 METAR KMEM 161945Z 18020G27KT 10SM BKN032 BKN046 OVC120 30/24 A2990 RMK AO2 PK
                 WND 17027/1945 T03000239 $ =
2019-06-16 13:54 METAR KMEM 161854Z 20012KT 10SM SCT035 OVC120 31/23 A2989 RMK AO2 SLP118
                 T03060233 $ =
2019-06-16 12:54 METAR KMEM 161754Z 20010G16KT 10SM SCT035 BKN042 OVC120 30/23 A2991 RMK AO2
                 SLP123 T03000233 10300 20250 58013 $ =
2019-06-16 12:46 METAR KMEM 161746Z 22012G18KT 10SM SCT035 BKN042 OVC120 30/23 A2991 RMK AO2
                 T03000233 $ =
2019-06-16 11:54 METAR KMEM 161654Z 21010KT 10SM FEW027 BKN033 OVC120 29/23 A2993 RMK AO2 SLP129
                 T02890233 $ =
2019-06-16 11:13 METAR KMEM 161613Z 22010G19KT 10SM BKN027 OVC120 28/23 A2994 RMK AO2 T02830233 $
                 =
2019-06-16 10:54 METAR KMEM 161554Z 21009G20KT 10SM SCT027 OVC120 28/23 A2994 RMK AO2 SLP134
                 T02830228 $ =
2019-06-16 09:54 METAR KMEM 161454Z 21008KT 10SM SCT023 SCT038 OVC120 27/23 A2995 RMK AO2 SLP136
                 T02720233 58005 $ =
2019-06-16 08:54 METAR KMEM 161354Z 21013G22KT 10SM FEW017 SCT038 SCT120 27/23 A2996 RMK AO2
                 SLP141 T02720233 $ =
2019-06-16 08:41 METAR KMEM 161341Z 21012G20KT 10SM SCT036 SCT120 27/23 A2996 RMK AO2 T02670233 $
                 =
2019-06-16 08:05 METAR KMEM 161305Z 20009KT 10SM OVC031 26/23 A2997 RMK AO2 T02560228 $ =
2019-06-16 07:54 METAR KMEM 161254Z 20010G22KT 10SM OVC029 26/23 A2997 RMK AO2 SLP143 T02560228 $
                 =
2019-06-16 06:54 METAR KMEM 161154Z 21008KT 10SM BKN020 OVC250 25/22 A2996 RMK AO2 SLP141
                 T02500222 10261 20244 53020 $ =
2019-06-16 06:50 METAR KMEM 161150Z 21007KT 10SM BKN020 OVC250 25/22 A2996 RMK AO2 $ =
2019-06-16 05:54 METAR KMEM 161054Z 21010KT 10SM FEW150 BKN250 24/22 A2993 RMK AO2 SLP132
                 T02440222 $ =
2019-06-16 04:54 METAR KMEM 160954Z 20008KT 10SM SCT250 24/22 A2992 RMK AO2 SLP129 T02440217 $ =
2019-06-16 03:54 METAR KMEM 160854Z 19009KT 10SM FEW250 25/22 A2990 RMK AO2 SLP121 T02500217
                 55002 $ =
2019-06-16 02:54 METAR KMEM 160754Z 20009KT 10SM CLR 25/22 A2990 RMK AO2 SLP121 T02500217 $ =
2019-06-16 01:54 METAR KMEM 160654Z 19007KT 10SM CLR 26/22 A2990 RMK AO2 SLP122 T02560217 $ =
2019-06-16 00:54 METAR KMEM 160554Z 20009KT 10SM SCT044 27/22 A2991 RMK AO2 SLP123 T02670217
                 10294 20261 403110206 53009 $ =
2019-06-15 23:54 METAR KMEM 160454Z 20009KT 10SM CLR 27/22 A2989 RMK AO2 SLP117 T02670217 $ =
2019-06-15 22:54 METAR KMEM 160354Z COR 20011G19KT 10SM FEW048 SCT170 28/22 A2990 RMK AO2 SLP119
                 T02780217 $ =
2019-06-15 21:54 METAR KMEM 160254Z 19015KT 10SM FEW040 BKN170 28/22 A2988 RMK AO2 SLP114
                 T02780217 58010 $ =
2019-06-15 20:54 METAR KMEM 160154Z 18010KT 10SM FEW004 SCT150 BKN250 28/22 A2989 RMK AO2 SLP119
                 T02780217 $ =
2019-06-15 19:54 METAR KMEM 160054Z 17009KT 10SM FEW042 SCT150 BKN250 29/22 A2990 RMK AO2 SLP122
                 T02890217 $ =
2019-06-15 18:54 METAR KMEM 152354Z 19009KT 10SM FEW050 BKN250 29/21 A2991 RMK AO2 SLP124
                 T02940211 10311 20294 56010 $ =
2019-06-15 17:54 METAR KMEM 152254Z 21010KT 10SM FEW050 BKN250 30/21 A2991 RMK AO2 SLP124
                 T03000206 $ =
2019-06-15 16:54 METAR KMEM 152154Z 21010KT 10SM SCT048 SCT180 BKN250 31/21 A2992 RMK AO2 SLP127
                 T03060211 $ =
2019-06-15 15:54 METAR KMEM 152054Z 24009KT 10SM FEW048 SCT060 BKN130 31/20 A2994 RMK AO2 SLP134
                 T03060200 56015 $ =
2019-06-15 14:54 METAR KMEM 151954Z 23012G18KT 10SM BKN046 BKN060 BKN150 31/21 A2995 RMK AO2
                 SLP138 T03110211 $ =
2019-06-15 13:54 METAR KMEM 151854Z 19017G21KT 10SM SCT042 BKN055 BKN150 30/22 A2997 RMK AO2
                 SLP144 T03000217 $ =
2019-06-15 12:54 METAR KMEM 151754Z 20016G24KT 10SM SCT039 SCT050 BKN060 BKN150 29/21 A2998 RMK
                 AO2 SLP149 T02890211 10300 20228 58010 $ =
2019-06-15 12:16 METAR KMEM 151716Z 21012G21KT 10SM BKN039 BKN055 29/22 A3000 RMK AO2 T02940217 $
                 =
2019-06-15 11:54 METAR KMEM 151654Z 21013G24KT 10SM SCT037 BKN048 BKN060 28/21 A3000 RMK AO2 PK
                 WND 24026/1611 SLP154 T02830211 $ =
2019-06-15 11:43 METAR KMEM 151643Z 22015G21KT 10SM SCT037 BKN048 BKN060 28/21 A3002 RMK AO2 PK
                 WND 24026/1611 T02830211 $ =
2019-06-15 11:25 METAR KMEM 151625Z 23012G18KT 10SM BKN037 BKN045 BKN055 28/21 A3002 RMK AO2 PK
                 WND 24026/1611 T02780211 $ =
2019-06-15 10:54 METAR KMEM 151554Z 22013G22KT 170V240 10SM FEW034 SCT042 BKN150 28/21 A3001 RMK
                 AO2 SLP158 T02780206 $ =
2019-06-15 09:54 METAR KMEM 151454Z 21011G20KT 10SM FEW027 SCT150 27/22 A3001 RMK AO2 SLP159
                 T02720217 50007 $ =
2019-06-15 08:54 METAR KMEM 151354Z 22011G20KT 10SM FEW030 SCT150 26/21 A3002 RMK AO2 SLP161
                 T02560211 $ =
2019-06-15 07:54 METAR KMEM 151254Z 21009KT 10SM FEW150 BKN250 24/21 A3001 RMK AO2 SLP158
                 T02440206 $ =
2019-06-15 06:54 METAR KMEM 151154Z 19011KT 10SM FEW150 SCT250 23/19 A2999 RMK AO2 SLP152
                 T02280189 10228 20206 50002 $ =
2019-06-15 05:54 METAR KMEM 151054Z 19007KT 10SM FEW050 FEW150 SCT250 22/18 A3002 RMK AO2 SLP160
                 T02170178 $ =
2019-06-15 04:54 METAR KMEM 150954Z 18007KT 10SM FEW060 FEW150 21/17 A2999 RMK AO2 SLP150
                 T02110167 $ =
2019-06-15 03:54 METAR KMEM 150854Z 17008KT 10SM BKN060 22/16 A2999 RMK AO2 SLP150 T02170161
                 53002 $ =
2019-06-15 02:54 METAR KMEM 150754Z 16006KT 10SM FEW150 22/16 A2997 RMK AO2 SLP145 T02170156 $ =
2019-06-15 01:54 METAR KMEM 150654Z 18007KT 10SM SCT150 22/16 A2998 RMK AO2 SLP147 T02170156 $ =
2019-06-15 00:54 METAR KMEM 150554Z 18009KT 10SM BKN200 23/16 A2998 RMK AO2 SLP148 T02280156
                 10267 20228 402780139 58008 $ =
2019-06-14 23:54 METAR KMEM 150454Z 18005KT 10SM SCT150 23/15 A3000 RMK AO2 SLP153 T02280150 $ =
2019-06-14 22:54 METAR KMEM 150354Z 16007KT 10SM FEW160 24/15 A3000 RMK AO2 SLP154 T02390150 =
2019-06-14 21:54 METAR KMEM 150254Z 17007KT 10SM SCT160 24/14 A3001 RMK AO2 SLP156 T02440144
                 53001 =
2019-06-14 20:54 METAR KMEM 150154Z 17007KT 10SM FEW100 BKN150 OVC200 25/14 A2999 RMK AO2 SLP152
                 T02500144 =
2019-06-14 19:54 METAR KMEM 150054Z 15010KT 10SM SCT095 BKN150 BKN250 26/14 A3000 RMK AO2 SLP155
                 T02560144 =
2019-06-14 18:54 METAR KMEM 142354Z 15008KT 10SM BKN160 BKN250 26/13 A3000 RMK AO2 SLP156
                 T02610133 10278 20261 58009 =
2019-06-14 17:54 METAR KMEM 142254Z 18008KT 10SM SCT150 BKN250 27/13 A3002 RMK AO2 SLP162
                 T02670133 =
2019-06-14 16:54 METAR KMEM 142154Z 16011G18KT 10SM FEW150 BKN250 27/13 A3003 RMK AO2 SLP165
                 T02720128 =
2019-06-14 15:54 METAR KMEM 142054Z 18014G19KT 10SM FEW180 BKN250 27/12 A3003 RMK AO2 SLP165
                 T02720117 58030 =
2019-06-14 14:54 METAR KMEM 141954Z 16007KT 10SM BKN250 28/12 A3006 RMK AO2 SLP174 T02780117 =
2019-06-14 13:54 METAR KMEM 141854Z 21010G19KT 10SM BKN250 27/12 A3010 RMK AO2 SLP188 T02670117 $
                 =
2019-06-14 12:54 METAR KMEM 141754Z 19008G16KT 10SM FEW200 SCT250 27/12 A3012 RMK AO2 SLP196
                 T02670117 10272 20172 58011 $ =
2019-06-14 11:54 METAR KMEM 141654Z 17009KT 150V210 10SM FEW180 BKN250 26/12 A3015 RMK AO2 SLP206
                 T02610117 $ =
2019-06-14 10:54 METAR KMEM 141554Z 21010KT 10SM FEW150 BKN250 26/12 A3016 RMK AO2 SLP210
                 T02560117 $ =
2019-06-14 09:54 METAR KMEM 141454Z 15009KT 10SM FEW150 BKN250 24/11 A3015 RMK AO2 SLP207
                 T02440106 50006 $ =
2019-06-14 08:54 METAR KMEM 141354Z 18006KT 10SM SCT250 23/11 A3017 RMK AO2 SLP211 T02280111 $ =
2019-06-14 07:54 METAR KMEM 141254Z 12004KT 10SM SCT250 21/11 A3014 RMK AO2 SLP203 T02060106 $ =
2019-06-14 06:54 METAR KMEM 141154Z 09003KT 10SM FEW250 17/13 A3013 RMK AO2 SLP201 T01720128
                 10189 20139 53004 $ =
2019-06-14 05:54 METAR KMEM 141054Z 00000KT 10SM FEW250 15/11 A3013 RMK AO2 SLP199 T01500111 $ =
2019-06-14 04:54 METAR KMEM 140954Z 00000KT 10SM FEW250 14/11 A3012 RMK AO2 SLP198 T01440106 $ =
2019-06-14 03:54 METAR KMEM 140854Z 00000KT 10SM CLR 14/11 A3012 RMK AO2 SLP196 T01440111 50002 $
                 =
2019-06-14 02:54 METAR KMEM 140754Z 00000KT 10SM CLR 16/11 A3012 RMK AO2 SLP197 T01560111 $ =
2019-06-14 01:54 METAR KMEM 140654Z 00000KT 10SM CLR 17/11 A3011 RMK AO2 SLP194 T01720106 $ =
2019-06-14 00:54 METAR KMEM 140554Z 00000KT 10SM CLR 19/09 A3011 RMK AO2 SLP194 T01890094 10244
                 20167 402670156 50003 $ =
2019-06-13 23:54 METAR KMEM 140454Z 00000KT 10SM CLR 18/11 A3012 RMK AO2 SLP195 T01780106 $ =
2019-06-13 22:54 METAR KMEM 140354Z 00000KT 10SM CLR 19/09 A3011 RMK AO2 SLP192 T01940094 $ =
2019-06-13 21:54 METAR KMEM 140254Z 00000KT 10SM FEW250 21/08 A3010 RMK AO2 SLP191 T02060083
                 53009 $ =
2019-06-13 20:54 METAR KMEM 140154Z 33003KT 10SM FEW250 23/06 A3008 RMK AO2 SLP184 T02280061 $ =
2019-06-13 19:54 METAR KMEM 140054Z 01006KT 10SM CLR 23/07 A3008 RMK AO2 SLP183 T02280067 $ =
2019-06-13 18:54 METAR KMEM 132354Z 36006KT 10SM CLR 24/06 A3008 RMK AO2 SLP182 T02440061 10267
                 20244 51002 $ =
2019-06-13 17:54 METAR KMEM 132254Z 32006KT 10SM CLR 26/07 A3008 RMK AO2 SLP181 T02560072 $ =
2019-06-13 16:54 METAR KMEM 132154Z 33008KT 10SM CLR 26/08 A3008 RMK AO2 SLP182 T02610078 $ =
2019-06-13 15:54 METAR KMEM 132054Z 34011G16KT 10SM CLR 26/09 A3007 RMK AO2 SLP180 T02610089
                 58003 $ =
2019-06-13 14:54 METAR KMEM 131954Z 01006KT 10SM FEW070 26/07 A3008 RMK AO2 SLP182 T02560067 $ =
2019-06-13 13:54 METAR KMEM 131854Z 31013G19KT 10SM FEW065 26/08 A3008 RMK AO2 SLP182 T02560078 $
                 =
2019-06-13 12:54 METAR KMEM 131754Z 31013G19KT 10SM FEW050 25/10 A3008 RMK AO2 SLP183 T02500100
                 10250 20167 50001 $ =
2019-06-13 11:54 METAR KMEM 131654Z 32014KT 10SM FEW045 24/11 A3008 RMK AO2 SLP183 T02390111 $ =
2019-06-13 10:54 METAR KMEM 131554Z 29010KT 10SM CLR 23/15 A3008 RMK AO2 SLP184 T02330150 $ =
2019-06-13 09:54 METAR KMEM 131454Z 29007KT 10SM CLR 22/15 A3008 RMK AO2 SLP182 T02220150 51013 $
                 =
2019-06-13 08:54 METAR KMEM 131354Z 33006KT 10SM CLR 21/14 A3007 RMK AO2 SLP180 T02060139 $ =
2019-06-13 07:54 METAR KMEM 131254Z 30006KT 10SM CLR 19/13 A3006 RMK AO2 SLP176 T01890133 $ =
2019-06-13 06:54 METAR KMEM 131154Z 32004KT 10SM FEW250 17/13 A3004 RMK AO2 SLP169 T01670133
                 10183 20156 51021 $ =
2019-06-13 05:54 METAR KMEM 131054Z 29004KT 10SM FEW250 16/12 A3003 RMK AO2 SLP164 T01560122 $ =
2019-06-13 04:54 METAR KMEM 130954Z 32009KT 10SM CLR 16/12 A2999 RMK AO2 SLP154 T01610122 $ =
2019-06-13 03:54 METAR KMEM 130854Z 32007KT 10SM CLR 17/12 A2998 RMK AO2 SLP147 T01670122 53005 $
                 =
2019-06-13 02:54 METAR KMEM 130754Z 33009KT 10SM CLR 18/12 A2996 RMK AO2 SLP143 T01780122 $ =
2019-06-13 01:54 METAR KMEM 130654Z 30006KT 10SM CLR 18/13 A2996 RMK AO2 SLP142 T01780128 $ =
2019-06-13 00:54 METAR KMEM 130554Z 31005KT 10SM CLR 18/13 A2996 RMK AO2 SLP142 T01780128 10250
                 20178 402720172 51005 $ =
2019-06-12 23:54 METAR KMEM 130454Z 31005KT 10SM CLR 18/14 A2996 RMK AO2 SLP141 T01830139 $ =
2019-06-12 22:54 METAR KMEM 130354Z 34004KT 10SM FEW095 SCT110 20/13 A2997 RMK AO2 SLP144
                 T02000133 $ =
2019-06-12 21:54 METAR KMEM 130254Z 28011G17KT 10SM FEW060 SCT160 22/14 A2994 RMK AO2 SLP136
                 T02220139 53015 $ =
2019-06-12 20:54 METAR KMEM 130154Z 27005KT 10SM FEW070 SCT170 22/12 A2992 RMK AO2 SLP129
                 T02220122 $ =
2019-06-12 19:54 METAR KMEM 130054Z 29007KT 10SM FEW070 23/12 A2990 RMK AO2 SLP121 T02280117 $ =
2019-06-12 18:54 METAR KMEM 122354Z 30009KT 10SM BKN075 BKN090 25/12 A2990 RMK AO2 SLP121
                 T02500117 10272 20244 55003 $ =
2019-06-12 17:54 METAR KMEM 122254Z 30008KT 10SM BKN085 25/11 A2989 RMK AO2 SLP119 T02500106 $ =
2019-06-12 16:54 METAR KMEM 122154Z 30009KT 10SM FEW095 BKN120 27/11 A2990 RMK AO2 SLP121
                 T02720106 $ =
2019-06-12 15:54 METAR KMEM 122054Z 30008KT 260V330 10SM FEW120 FEW250 27/12 A2991 RMK AO2 SLP124
                 T02670122 56010 $ =
2019-06-12 14:54 METAR KMEM 121954Z 35006KT 10SM FEW110 FEW170 SCT250 27/12 A2992 RMK AO2 SLP127
                 T02670122 $ =
2019-06-12 13:54 METAR KMEM 121854Z 31010KT 10SM FEW110 SCT170 SCT250 27/11 A2992 RMK AO2 SLP129
                 T02670111 $ =
2019-06-12 12:54 METAR KMEM 121754Z 29010KT 10SM FEW170 SCT250 26/11 A2994 RMK AO2 SLP135
                 T02610111 10267 20189 58012 $ =
2019-06-12 11:54 METAR KMEM 121654Z 33007G14KT 10SM FEW170 SCT250 26/12 A2996 RMK AO2 SLP142
                 T02560122 $ =
2019-06-12 10:54 METAR KMEM 121554Z 30009G15KT 10SM SCT170 SCT250 24/13 A2997 RMK AO2 SLP146
                 T02390128 $ =
2019-06-12 09:54 METAR KMEM 121454Z 29005KT 10SM FEW170 SCT250 23/15 A2997 RMK AO2 SLP147
                 T02280150 52003 $ =
2019-06-12 08:54 METAR KMEM 121354Z 30005KT 10SM FEW170 SCT250 23/14 A2997 RMK AO2 SLP146
                 T02280139 $ =
2019-06-12 07:54 METAR KMEM 121254Z 00000KT 10SM FEW170 SCT250 21/14 A2997 RMK AO2 SLP144
                 T02060139 $ =
2019-06-12 06:54 METAR KMEM 121154Z 36003KT 10SM SCT170 BKN200 BKN250 19/14 A2996 RMK AO2 SLP143
                 T01890139 10206 20172 58003 $ =
2019-06-12 05:54 METAR KMEM 121054Z 01003KT 10SM SCT150 BKN180 18/13 A2997 RMK AO2 SLP147
                 T01780133 $ =
2019-06-12 04:54 METAR KMEM 120954Z 01003KT 10SM OVC170 19/13 A2998 RMK AO2 SLP147 T01890128 $ =
2019-06-12 03:54 METAR KMEM 120854Z 10006KT 10SM BKN180 OVC250 20/12 A2997 RMK AO2 SLP146
                 T02000122 56017 $ =
2019-06-12 02:54 METAR KMEM 120754Z 06005KT 10SM FEW100 BKN180 OVC250 20/13 A2998 RMK AO2 SLP149
                 T02000128 $ =
2019-06-12 01:54 METAR KMEM 120654Z 05005KT 10SM FEW100 BKN180 OVC250 19/13 A3001 RMK AO2 SLP158
                 T01940128 $ =
2019-06-12 00:54 METAR KMEM 120554Z 03005KT 10SM SCT150 OVC190 20/12 A3002 RMK AO2 SLP163
                 T02000122 10244 20200 402610178 58003 $ =
2019-06-11 23:54 METAR KMEM 120454Z 08007KT 10SM OVC190 21/11 A3004 RMK AO2 SLP168 T02110111 $ =
2019-06-11 22:54 METAR KMEM 120354Z 05007KT 10SM BKN250 21/12 A3004 RMK AO2 SLP170 T02110122 $ =
2019-06-11 21:54 METAR KMEM 120254Z 08006KT 10SM BKN250 21/12 A3003 RMK AO2 SLP166 T02060122
                 55002 $ =
2019-06-11 20:54 METAR KMEM 120154Z 08005KT 10SM BKN250 22/12 A3002 RMK AO2 SLP164 T02170117 $ =
2019-06-11 19:54 METAR KMEM 120054Z 06008KT 10SM FEW220 BKN250 23/11 A3003 RMK AO2 SLP167
                 T02330106 $ =
2019-06-11 18:54 METAR KMEM 112354Z 03008KT 10SM BKN210 OVC250 24/09 A3004 RMK AO2 SLP168
                 T02440094 10261 20244 56015 $ =
2019-06-11 17:54 METAR KMEM 112254Z 06008KT 10SM BKN230 OVC250 24/09 A3004 RMK AO2 SLP170
                 T02440094 $ =
2019-06-11 16:54 METAR KMEM 112154Z 04010KT 10SM BKN230 OVC250 25/09 A3006 RMK AO2 SLP176
                 T02500094 $ =
2019-06-11 15:54 METAR KMEM 112054Z 08007KT 10SM BKN250 26/09 A3008 RMK AO2 SLP183 T02560094
                 58019 $ =
2019-06-11 14:54 METAR KMEM 111954Z 08010KT 10SM BKN250 26/08 A3010 RMK AO2 SLP190 T02560083 =
2019-06-11 13:54 METAR KMEM 111854Z 04010KT 10SM BKN250 26/08 A3012 RMK AO2 SLP196 T02560083 =
2019-06-11 12:54 METAR KMEM 111754Z 07014G21KT 10SM FEW200 BKN250 26/08 A3014 RMK AO2 SLP202
                 T02560083 10261 20183 58012 =
2019-06-11 11:54 METAR KMEM 111654Z 08014KT 10SM SCT200 BKN250 25/09 A3015 RMK AO2 SLP208
                 T02500094 =
2019-06-11 10:54 METAR KMEM 111554Z 05012KT 10SM SCT200 BKN250 25/11 A3017 RMK AO2 SLP213
                 T02500106 =
2019-06-11 09:54 METAR KMEM 111454Z 08010KT 10SM SCT200 BKN250 23/11 A3017 RMK AO2 SLP214
                 T02330111 58006 =
2019-06-11 08:54 METAR KMEM 111354Z 07008KT 10SM SCT200 BKN250 22/11 A3019 RMK AO2 SLP219
                 T02170111 =
2019-06-11 07:54 METAR KMEM 111254Z 05009KT 10SM FEW200 BKN250 19/11 A3019 RMK AO2 SLP220
                 T01890111 =
2019-06-11 06:54 METAR KMEM 111154Z 05008KT 10SM FEW150 BKN250 18/11 A3019 RMK AO2 SLP220
                 T01830111 10189 20178 53010 =
2019-06-11 05:54 METAR KMEM 111054Z 02005KT 10SM FEW150 BKN250 18/11 A3018 RMK AO2 SLP217
                 T01780106 =
2019-06-11 04:54 METAR KMEM 110954Z 01007KT 10SM SCT250 18/11 A3017 RMK AO2 SLP212 T01780106 =
2019-06-11 03:54 METAR KMEM 110854Z 01007KT 10SM SCT250 18/11 A3016 RMK AO2 SLP210 T01830106
                 55004 =
2019-06-11 02:54 METAR KMEM 110754Z 01007KT 10SM SCT250 18/11 A3016 RMK AO2 SLP210 T01830106 =
2019-06-11 01:54 METAR KMEM 110654Z 01006KT 10SM BKN250 18/11 A3017 RMK AO2 SLP214 T01830106 =
2019-06-11 00:54 METAR KMEM 110554Z 01007KT 10SM SCT250 19/11 A3017 RMK AO2 SLP214 T01890106
                 10261 20189 402780189 50001 =
2019-06-10 23:54 METAR KMEM 110454Z 02008KT 10SM SCT250 20/10 A3018 RMK AO2 SLP215 T02000100 =
2019-06-10 22:54 METAR KMEM 110354Z 01006KT 10SM SCT250 21/09 A3018 RMK AO2 SLP216 T02060094 =
2019-06-10 21:54 METAR KMEM 110254Z 01007KT 10SM FEW250 22/08 A3017 RMK AO2 SLP214 T02170083
                 53014 =
2019-06-10 20:54 METAR KMEM 110154Z 02009KT 10SM SCT250 23/08 A3015 RMK AO2 SLP205 T02330078 =
2019-06-10 19:54 METAR KMEM 110054Z 01010KT 10SM SCT250 24/08 A3014 RMK AO2 SLP202 T02440083 =
2019-06-10 18:54 METAR KMEM 102354Z 01012G20KT 10SM BKN250 26/08 A3013 RMK AO2 SLP199 T02610078
                 10278 20261 53002 =
2019-06-10 17:54 METAR KMEM 102254Z 01016G21KT 10SM SCT250 27/09 A3012 RMK AO2 PK WND 36028/2207
                 SLP197 T02670089 =
2019-06-10 16:54 METAR KMEM 102154Z 01015G26KT 10SM SCT250 27/09 A3013 RMK AO2 PK WND 36026/2145
                 SLP198 T02720094 =
2019-06-10 15:54 METAR KMEM 102054Z 35014G21KT 10SM SCT250 27/13 A3012 RMK AO2 PK WND 01026/2018
                 SLP197 T02720133 58003 =
2019-06-10 14:54 METAR KMEM 101954Z 01019G25KT 10SM SCT250 27/14 A3014 RMK AO2 SLP200 T02720144 =
2019-06-10 13:54 METAR KMEM 101854Z 34012G18KT 10SM FEW250 27/15 A3013 RMK AO2 SLP200 T02720150 =
2019-06-10 13:24 METAR KMEM 101824Z 35010KT 10SM FEW250 27/15 A3014 RMK AO2 T02720150 =
2019-06-10 12:54 METAR KMEM 101754Z 01014KT 10SM CLR 27/16 A3013 RMK AO2 SLP200 T02720156 10272
                 20233 51004 =
2019-06-10 11:54 METAR KMEM 101654Z 01014KT 10SM CLR 26/16 A3013 RMK AO2 SLP198 T02610161 =
2019-06-10 10:54 METAR KMEM 101554Z 34012KT 10SM CLR 25/17 A3013 RMK AO2 SLP199 T02500167 =
2019-06-10 09:54 METAR KMEM 101454Z 35014KT 10SM FEW030 SCT080 25/18 A3012 RMK AO2 SLP196
                 T02500183 51019 =
2019-06-10 08:54 METAR KMEM 101354Z 34012KT 10SM FEW027 SCT080 SCT250 25/18 A3011 RMK AO2 PK WND
                 36027/1335 SLP192 T02500183 =
2019-06-10 07:54 METAR KMEM 101254Z 35014KT 10SM FEW010 SCT080 BKN150 24/19 A3009 RMK AO2 SLP184
                 T02390194 $ =
2019-06-10 06:54 METAR KMEM 101154Z 35010KT 10SM FEW150 FEW250 23/21 A3006 RMK AO2 SLP176
                 T02330206 10244 20233 53028 $ =
2019-06-10 05:54 METAR KMEM 101054Z 34011KT 10SM CLR 23/21 A3004 RMK AO2 SLP166 T02330206 $ =
2019-06-10 04:54 METAR KMEM 100954Z 34009KT 10SM CLR 23/21 A3000 RMK AO2 SLP155 T02330211 $ =
2019-06-10 03:54 METAR KMEM 100854Z 33008KT 10SM CLR 23/22 A2998 RMK AO2 SLP148 T02330222 53005 $
                 =
2019-06-10 02:54 METAR KMEM 100754Z 32004KT 10SM CLR 23/22 A2997 RMK AO2 SLP145 T02330222 $ =
2019-06-10 01:54 METAR KMEM 100654Z 32003KT 10SM FEW070 FEW250 24/22 A2996 RMK AO2 SLP142
                 T02390222 $ =
2019-06-10 00:54 METAR KMEM 100554Z 31005KT 10SM FEW070 SCT250 24/22 A2996 RMK AO2 SLP142
                 T02440222 10289 20244 402940211 51005 $ =
2019-06-09 23:54 METAR KMEM 100454Z 32004KT 10SM SCT250 25/22 A2996 RMK AO2 SLP142 T02500222 $ =
2019-06-09 22:54 METAR KMEM 100354Z 32003KT 10SM SCT250 25/22 A2996 RMK AO2 SLP139 T02500222 $ =
2019-06-09 21:54 METAR KMEM 100254Z 35003KT 10SM FEW042 SCT250 27/22 A2995 RMK AO2 SLP137
                 T02670222 53013 $ =
2019-06-09 20:54 METAR KMEM 100154Z 32004KT 10SM FEW030 FEW080 BKN250 27/22 A2993 RMK AO2 SLP131
                 T02670222 $ =
2019-06-09 19:54 METAR KMEM 100054Z 36005KT 10SM FEW030 BKN250 27/22 A2991 RMK AO2 SLP125
                 T02720222 $ =
2019-06-09 18:54 METAR KMEM 092354Z 32007KT 10SM FEW030 BKN250 29/22 A2991 RMK AO2 SLP124
                 T02890222 10294 20256 53002 $ =

Support USWX by starting your Amazon purchase here.